Time;durP1;ratioP1;P1;durP2;ratioP2;P2;SDS_P1;SDS_P2;PMS_P1;PMS_P2;Temp;Humidity;BMP_temperature;BMP_pressure;BME280_temperature;BME280_humidity;BME280_pressure;Samples;Min_cycle;Max_cycle;Signal;HPM_P1;HPM_P2
2024/03/25 00:02:07;;;;;;;14.15;2.50;;;6.20;99.90;;;;;;5054633;28;20040;-64
2024/03/25 00:04:33;;;;;;;13.50;2.83;;;6.10;99.90;;;;;;5053340;28;20035;-64
2024/03/25 00:06:58;;;;;;;12.07;2.92;;;6.10;99.90;;;;;;5053144;28;20443;-64
2024/03/25 00:09:24;;;;;;;15.07;2.35;;;6.00;99.90;;;;;;5051275;28;20044;-64
2024/03/25 00:11:54;;;;;;;11.98;2.78;;;6.00;99.90;;;;;;5085061;28;20044;-64
2024/03/25 00:14:22;;;;;;;11.30;1.92;;;6.00;99.90;;;;;;5071099;28;20122;-64
2024/03/25 00:16:48;;;;;;;11.27;2.75;;;5.90;99.90;;;;;;5076440;28;20668;-64
2024/03/25 00:19:14;;;;;;;11.57;2.78;;;5.90;99.90;;;;;;5056727;28;20060;-64
2024/03/25 00:21:39;;;;;;;11.15;2.17;;;5.90;99.90;;;;;;5071334;28;20035;-64
2024/03/25 00:24:05;;;;;;;10.90;1.85;;;5.80;99.90;;;;;;5053660;28;20036;-64
2024/03/25 00:26:31;;;;;;;16.98;2.55;;;5.90;99.90;;;;;;5053524;28;20055;-64
2024/03/25 00:28:57;;;;;;;11.02;1.92;;;5.80;99.90;;;;;;5089649;28;20386;-64
2024/03/25 00:31:22;;;;;;;14.25;3.55;;;5.80;99.90;;;;;;5040071;28;20066;-64
2024/03/25 00:33:48;;;;;;;10.02;2.05;;;5.80;99.90;;;;;;5056099;28;20044;-64
2024/03/25 00:36:13;;;;;;;12.63;2.10;;;5.80;99.90;;;;;;5072886;28;20149;-64
2024/03/25 00:38:39;;;;;;;11.23;2.92;;;5.80;99.90;;;;;;5054845;28;20094;-64
2024/03/25 00:41:05;;;;;;;14.50;2.55;;;5.80;99.90;;;;;;5074665;28;20037;-64
2024/03/25 00:43:30;;;;;;;15.38;2.85;;;5.80;99.90;;;;;;5055172;28;20391;-64
2024/03/25 00:45:56;;;;;;;20.60;3.70;;;5.90;99.90;;;;;;5074813;28;20036;-64
2024/03/25 00:48:22;;;;;;;11.50;2.22;;;5.80;99.90;;;;;;5070921;28;20028;-64
2024/03/25 00:50:48;;;;;;;14.20;2.70;;;5.90;99.90;;;;;;5052894;28;20483;-64
2024/03/25 00:53:14;;;;;;;11.43;2.47;;;5.90;99.90;;;;;;5055097;28;20040;-64
2024/03/25 00:55:40;;;;;;;15.95;3.38;;;5.90;99.90;;;;;;5075188;28;20055;-64
2024/03/25 00:58:05;;;;;;;14.68;2.40;;;5.90;99.90;;;;;;5056895;28;20528;-64
2024/03/25 01:00:31;;;;;;;14.05;2.17;;;5.90;99.90;;;;;;5075213;28;20146;-64
2024/03/25 01:02:57;;;;;;;26.73;4.03;;;5.80;99.90;;;;;;5054825;28;20368;-64
2024/03/25 01:05:23;;;;;;;17.02;3.78;;;5.80;99.90;;;;;;5053470;28;20487;-64
2024/03/25 01:07:48;;;;;;;16.63;2.95;;;5.90;99.90;;;;;;5054354;28;20039;-64
2024/03/25 01:10:16;;;;;;;18.63;2.45;;;5.90;99.90;;;;;;5075108;28;20051;-64
2024/03/25 01:12:42;;;;;;;13.63;2.03;;;5.90;99.90;;;;;;5078033;28;20032;-64
2024/03/25 01:15:09;;;;;;;18.13;2.53;;;5.90;99.90;;;;;;5075652;28;20099;-64
2024/03/25 01:17:36;;;;;;;17.60;3.28;;;5.80;99.90;;;;;;5073066;28;20509;-64
2024/03/25 01:20:02;;;;;;;14.32;2.03;;;5.90;99.90;;;;;;5071366;28;20043;-64
2024/03/25 01:22:27;;;;;;;17.33;3.50;;;5.90;99.90;;;;;;5075768;28;20046;-64
2024/03/25 01:24:53;;;;;;;15.55;2.72;;;5.90;99.90;;;;;;5075598;28;20029;-63
2024/03/25 01:27:20;;;;;;;12.00;2.60;;;5.90;99.90;;;;;;5059041;28;20506;-64
2024/03/25 01:29:45;;;;;;;11.93;2.30;;;5.90;99.90;;;;;;5074045;28;20028;-64
2024/03/25 01:32:11;;;;;;;17.15;2.92;;;5.80;99.90;;;;;;5077742;28;20032;-64
2024/03/25 01:34:36;;;;;;;22.17;3.50;;;5.90;99.90;;;;;;5058419;28;20071;-64
2024/03/25 01:37:03;;;;;;;20.83;3.78;;;5.80;99.90;;;;;;5059014;28;20043;-64
2024/03/25 01:39:29;;;;;;;15.43;2.65;;;5.80;99.90;;;;;;5059611;28;20115;-64
2024/03/25 01:41:54;;;;;;;13.25;2.33;;;5.70;99.90;;;;;;5057419;28;20119;-64
2024/03/25 01:44:20;;;;;;;24.05;3.20;;;5.70;99.90;;;;;;5091908;28;20045;-64
2024/03/25 01:46:45;;;;;;;13.88;2.80;;;5.70;99.90;;;;;;5060314;28;20115;-64
2024/03/25 01:49:11;;;;;;;19.92;2.92;;;5.70;99.90;;;;;;5056965;28;20039;-64
2024/03/25 01:51:39;;;;;;;22.15;3.22;;;5.60;99.90;;;;;;5042367;28;20048;-64
2024/03/25 01:54:05;;;;;;;12.88;2.33;;;5.60;99.90;;;;;;5058403;28;20036;-64
2024/03/25 01:56:33;;;;;;;13.15;2.28;;;5.70;99.90;;;;;;5074198;28;20041;-64
2024/03/25 01:59:00;;;;;;;19.55;3.42;;;5.70;99.90;;;;;;5075335;28;20058;-64
2024/03/25 02:01:26;;;;;;;14.48;2.60;;;5.70;99.90;;;;;;5059175;28;20527;-64
2024/03/25 02:03:54;;;;;;;19.00;2.67;;;5.70;99.90;;;;;;5058280;28;20428;-64
2024/03/25 02:06:21;;;;;;;15.05;2.75;;;5.70;99.90;;;;;;5063143;28;20076;-64
2024/03/25 02:08:49;;;;;;;14.48;3.00;;;5.60;99.90;;;;;;5059051;28;20113;-64
2024/03/25 02:11:15;;;;;;;12.38;2.70;;;5.60;99.90;;;;;;5074340;28;20054;-64
2024/03/25 02:13:40;;;;;;;27.10;3.58;;;5.70;99.90;;;;;;5077910;28;20036;-64
2024/03/25 02:16:06;;;;;;;19.65;2.58;;;5.60;99.90;;;;;;5077031;28;20048;-64
2024/03/25 02:18:32;;;;;;;14.32;2.90;;;5.70;99.90;;;;;;5071604;28;20032;-64
2024/03/25 02:20:59;;;;;;;19.63;3.70;;;5.70;99.90;;;;;;5088134;28;20467;-64
2024/03/25 02:23:25;;;;;;;21.02;2.70;;;5.60;99.90;;;;;;5057984;28;20040;-64
2024/03/25 02:25:51;;;;;;;14.77;2.55;;;5.60;99.90;;;;;;5060691;28;20039;-64
2024/03/25 02:28:17;;;;;;;18.90;2.92;;;5.70;99.90;;;;;;5078597;28;20033;-64
2024/03/25 02:30:43;;;;;;;18.27;3.38;;;5.60;99.90;;;;;;5062026;28;20044;-64
2024/03/25 02:33:08;;;;;;;17.10;2.72;;;5.60;99.90;;;;;;5058796;28;20043;-64
2024/03/25 02:35:35;;;;;;;11.85;1.77;;;5.60;99.90;;;;;;5051657;28;20410;-64
2024/03/25 02:38:03;;;;;;;10.10;2.38;;;5.50;99.90;;;;;;5063201;28;20044;-64
2024/03/25 02:40:29;;;;;;;17.27;2.10;;;5.70;99.90;;;;;;5072439;28;20102;-64
2024/03/25 02:42:55;;;;;;;14.63;3.63;;;5.50;99.90;;;;;;5060426;28;20096;-64
2024/03/25 02:45:21;;;;;;;15.18;2.67;;;5.50;99.90;;;;;;5074955;28;20426;-64
2024/03/25 02:47:48;;;;;;;19.15;2.30;;;5.50;99.90;;;;;;5043503;28;20046;-64
2024/03/25 02:50:13;;;;;;;12.88;2.58;;;5.50;99.90;;;;;;5091357;28;20036;-64
2024/03/25 02:52:39;;;;;;;17.05;2.63;;;5.40;99.90;;;;;;5081353;28;20032;-64
2024/03/25 02:55:05;;;;;;;12.18;2.05;;;5.50;99.90;;;;;;5073339;28;20040;-64
2024/03/25 02:57:31;;;;;;;15.35;2.60;;;5.50;99.90;;;;;;5077229;28;20077;-64
2024/03/25 02:59:56;;;;;;;21.20;3.78;;;5.50;99.90;;;;;;5076220;28;20123;-64
2024/03/25 03:02:22;;;;;;;11.77;2.15;;;5.50;99.90;;;;;;5077928;28;20115;-64
2024/03/25 03:04:47;;;;;;;21.10;3.10;;;5.50;99.90;;;;;;5056070;28;20036;-63
2024/03/25 03:07:13;;;;;;;10.48;1.92;;;5.40;99.90;;;;;;5077435;28;20043;-64
2024/03/25 03:09:38;;;;;;;12.80;2.22;;;5.50;99.90;;;;;;5074687;28;20428;-64
2024/03/25 03:12:04;;;;;;;10.35;1.73;;;5.50;99.90;;;;;;5055586;28;20071;-64
2024/03/25 03:14:30;;;;;;;23.60;2.72;;;5.50;99.90;;;;;;5070275;28;20052;-64
2024/03/25 03:16:58;;;;;;;17.88;2.72;;;5.50;99.90;;;;;;5077172;28;20406;-64
2024/03/25 03:19:26;;;;;;;14.63;2.20;;;5.50;99.90;;;;;;5076577;28;20509;-64
2024/03/25 03:21:52;;;;;;;13.90;1.90;;;5.40;99.90;;;;;;5078239;28;20421;-64
2024/03/25 03:24:18;;;;;;;14.43;2.30;;;5.50;99.90;;;;;;5060210;28;20036;-64
2024/03/25 03:26:44;;;;;;;16.35;2.20;;;5.50;99.90;;;;;;5059639;28;20147;-64
2024/03/25 03:29:10;;;;;;;16.40;2.63;;;5.40;99.90;;;;;;5060378;28;20067;-64
2024/03/25 03:31:36;;;;;;;16.88;2.55;;;5.40;99.90;;;;;;5055724;28;20061;-64
2024/03/25 03:34:01;;;;;;;14.55;2.38;;;5.40;99.90;;;;;;5056126;28;20040;-64
2024/03/25 03:36:27;;;;;;;10.07;2.15;;;5.40;99.90;;;;;;5075851;28;20040;-64
2024/03/25 03:38:53;;;;;;;13.27;2.70;;;5.40;99.90;;;;;;5093021;28;20032;-64
2024/03/25 03:41:19;;;;;;;15.52;2.25;;;5.40;99.90;;;;;;5058262;28;20050;-64
2024/03/25 03:43:45;;;;;;;18.70;3.30;;;5.40;99.90;;;;;;5058249;28;20040;-64
2024/03/25 03:46:10;;;;;;;11.70;1.95;;;5.30;99.90;;;;;;5073277;28;20398;-64
2024/03/25 03:48:38;;;;;;;18.63;3.20;;;5.40;99.90;;;;;;5074697;28;20032;-64
2024/03/25 03:51:04;;;;;;;13.18;2.65;;;5.30;99.90;;;;;;5076863;28;20107;-64
2024/03/25 03:53:30;;;;;;;20.00;2.83;;;5.30;99.90;;;;;;5059295;28;20075;-64
2024/03/25 03:55:57;;;;;;;10.07;1.80;;;5.30;99.90;;;;;;5076851;28;20067;-64
2024/03/25 03:58:24;;;;;;;15.95;2.22;;;5.30;99.90;;;;;;5058155;28;20082;-64
2024/03/25 04:00:50;;;;;;;19.50;3.33;;;5.30;99.90;;;;;;5076092;28;20040;-64
2024/03/25 04:03:15;;;;;;;17.27;3.15;;;5.30;99.90;;;;;;5072493;28;20036;-64
2024/03/25 04:05:41;;;;;;;15.63;3.28;;;5.30;99.90;;;;;;5058504;28;20535;-64
2024/03/25 04:08:08;;;;;;;13.50;2.40;;;5.30;99.90;;;;;;5074662;28;20057;-64
2024/03/25 04:10:34;;;;;;;14.48;2.25;;;5.30;99.90;;;;;;5059234;28;20089;-64
2024/03/25 04:13:00;;;;;;;15.70;3.28;;;5.30;99.90;;;;;;5078580;28;20048;-64
2024/03/25 04:15:26;;;;;;;16.10;2.83;;;5.30;99.90;;;;;;5091338;28;20044;-64
2024/03/25 04:17:52;;;;;;;18.75;2.72;;;5.30;99.90;;;;;;5073948;28;20041;-64
2024/03/25 04:20:18;;;;;;;11.30;2.03;;;5.30;99.90;;;;;;5056892;28;20540;-64
2024/03/25 04:22:44;;;;;;;21.90;2.92;;;5.30;99.90;;;;;;5058089;28;20076;-64
2024/03/25 04:25:16;;;;;;;9.50;1.73;;;5.40;99.90;;;;;;5055698;28;20048;-64
2024/03/25 04:27:43;;;;;;;9.60;2.28;;;5.30;99.90;;;;;;5053198;28;20127;-64
2024/03/25 04:30:11;;;;;;;13.68;2.50;;;5.30;99.90;;;;;;5054193;28;20483;-64
2024/03/25 04:32:37;;;;;;;17.95;3.25;;;5.30;99.90;;;;;;5076403;28;20048;-64
2024/03/25 04:35:04;;;;;;;15.85;2.13;;;5.30;99.90;;;;;;5076226;28;20036;-64
2024/03/25 04:37:30;;;;;;;20.73;2.58;;;5.30;99.90;;;;;;5074343;28;20798;-64
2024/03/25 04:39:56;;;;;;;9.77;1.77;;;5.20;99.90;;;;;;5088080;28;20035;-64
2024/03/25 04:42:22;;;;;;;18.10;1.85;;;5.20;99.90;;;;;;5075155;28;20071;-64
2024/03/25 04:44:48;;;;;;;17.73;1.73;;;5.20;99.90;;;;;;5071284;28;20395;-64
2024/03/25 04:47:16;;;;;;;9.23;2.03;;;5.10;99.90;;;;;;5059325;28;20040;-64
2024/03/25 04:49:43;;;;;;;13.68;2.22;;;5.10;99.90;;;;;;5054329;28;20432;-64
2024/03/25 04:52:08;;;;;;;10.80;2.30;;;5.00;99.90;;;;;;5056614;28;20048;-64
2024/03/25 04:54:34;;;;;;;11.27;1.88;;;5.00;99.90;;;;;;5058926;28;20051;-64
2024/03/25 04:57:00;;;;;;;16.58;2.85;;;5.00;99.90;;;;;;5054457;28;20047;-64
2024/03/25 04:59:25;;;;;;;24.70;2.67;;;4.90;99.90;;;;;;5054167;28;20510;-64
2024/03/25 05:01:51;;;;;;;15.15;2.35;;;4.90;99.90;;;;;;5054740;28;20040;-64
2024/03/25 05:04:18;;;;;;;11.05;2.08;;;4.80;99.90;;;;;;5076114;28;20051;-64
2024/03/25 05:06:44;;;;;;;16.95;1.92;;;4.80;99.90;;;;;;5073407;28;20032;-64
2024/03/25 05:09:10;;;;;;;9.73;2.00;;;4.70;99.90;;;;;;5054451;28;20048;-64
2024/03/25 05:11:36;;;;;;;11.68;1.55;;;4.70;99.90;;;;;;5076623;28;20036;-64
2024/03/25 05:14:01;;;;;;;12.23;2.40;;;4.60;99.90;;;;;;5058491;28;20128;-64
2024/03/25 05:16:27;;;;;;;13.13;1.88;;;4.60;99.90;;;;;;5058316;28;20041;-64
2024/03/25 05:18:53;;;;;;;13.02;2.17;;;4.50;99.90;;;;;;5069164;28;20055;-64
2024/03/25 05:21:18;;;;;;;9.15;2.53;;;4.60;99.90;;;;;;5070872;28;20055;-64
2024/03/25 05:23:44;;;;;;;14.13;1.80;;;4.50;99.90;;;;;;5055924;28;20040;-64
2024/03/25 05:26:10;;;;;;;20.40;2.15;;;4.50;99.90;;;;;;5068824;28;20036;-64
2024/03/25 05:28:35;;;;;;;9.57;1.42;;;4.50;99.90;;;;;;5071761;28;20182;-64
2024/03/25 05:31:10;;;;;;;14.63;1.92;;;4.50;99.90;;;;;;5071994;28;20067;-64
2024/03/25 05:33:37;;;;;;;8.93;2.50;;;4.50;99.90;;;;;;5071396;28;20394;-63
2024/03/25 05:36:03;;;;;;;14.20;2.25;;;4.50;99.90;;;;;;5076483;28;20036;-65
2024/03/25 05:38:29;;;;;;;13.13;2.03;;;4.40;99.90;;;;;;5058004;28;20040;-64
2024/03/25 05:40:54;;;;;;;18.17;2.65;;;4.40;99.90;;;;;;5056415;28;20044;-64
2024/03/25 05:43:20;;;;;;;13.13;2.17;;;4.50;99.90;;;;;;5056616;28;20063;-64
2024/03/25 05:45:53;;;;;;;16.73;2.05;;;4.50;99.90;;;;;;5075171;28;20124;-63
2024/03/25 05:48:24;;;;;;;13.48;2.47;;;4.50;99.90;;;;;;5056156;28;20043;-64
2024/03/25 05:51:05;;;;;;;14.90;1.98;;;4.50;99.90;;;;;;5068662;28;20064;-64
2024/03/25 05:53:31;;;;;;;14.88;3.47;;;4.60;99.90;;;;;;5052039;28;20052;-64
2024/03/25 05:55:56;;;;;;;13.00;2.30;;;4.60;99.90;;;;;;5057951;28;20086;-64
2024/03/25 05:58:23;;;;;;;13.70;2.75;;;4.60;99.90;;;;;;5072834;28;20115;-64
2024/03/25 06:00:49;;;;;;;13.60;1.98;;;4.60;99.90;;;;;;5071152;28;20128;-63
2024/03/25 06:03:16;;;;;;;12.60;2.42;;;4.70;99.90;;;;;;5091248;28;20067;-63
2024/03/25 06:05:42;;;;;;;16.40;2.13;;;4.80;99.90;;;;;;5070455;28;20044;-63
2024/03/25 06:08:18;;;;;;;10.18;1.92;;;5.00;99.90;;;;;;5059777;28;20046;-64
2024/03/25 06:10:44;;;;;;;14.40;1.92;;;5.70;99.90;;;;;;5060827;28;20040;-64
2024/03/25 06:13:09;;;;;;;16.63;2.05;;;6.30;99.90;;;;;;5062597;28;20033;-64
2024/03/25 06:15:35;;;;;;;13.75;2.53;;;7.10;99.90;;;;;;5055241;28;20570;-64
2024/03/25 06:18:00;;;;;;;15.82;2.13;;;7.50;99.90;;;;;;5060104;28;20479;-64
2024/03/25 06:20:26;;;;;;;9.38;1.77;;;7.60;99.90;;;;;;5077750;28;20032;-64
2024/03/25 06:22:52;;;;;;;13.27;2.33;;;8.00;99.90;;;;;;5061475;28;20504;-64
2024/03/25 06:25:17;;;;;;;9.70;1.60;;;8.60;99.90;;;;;;5090635;28;20040;-64
2024/03/25 06:27:43;;;;;;;11.30;1.80;;;8.70;99.90;;;;;;5079977;28;20981;-64
2024/03/25 06:35:39;;;;;;;8.68;1.55;;;10.60;99.90;;;;;;5076933;28;20044;-64
2024/03/25 06:38:04;;;;;;;11.32;2.22;;;11.70;99.90;;;;;;5059603;28;20109;-64
2024/03/25 06:40:30;;;;;;;6.55;1.58;;;12.60;99.90;;;;;;5057103;28;20115;-64
2024/03/25 06:42:57;;;;;;;6.07;1.52;;;13.60;99.90;;;;;;5076357;28;20071;-64
2024/03/25 06:45:22;;;;;;;7.10;1.83;;;14.50;99.90;;;;;;5076401;28;20040;-64
2024/03/25 06:47:48;;;;;;;8.93;1.73;;;15.40;99.90;;;;;;5080652;28;20039;-64
2024/03/25 06:50:14;;;;;;;9.63;2.17;;;16.20;99.90;;;;;;5076480;28;20127;-64
2024/03/25 06:52:40;;;;;;;7.22;1.60;;;17.00;99.90;;;;;;5075046;28;20111;-64
2024/03/25 06:55:06;;;;;;;9.57;1.55;;;18.00;99.90;;;;;;5056252;28;20094;-64
2024/03/25 06:57:32;;;;;;;9.52;1.92;;;18.50;99.90;;;;;;5056795;28;20434;-64
2024/03/25 06:59:57;;;;;;;8.48;2.58;;;18.90;99.90;;;;;;5059077;28;20090;-64
2024/03/25 07:02:23;;;;;;;9.38;1.75;;;18.60;99.90;;;;;;5057330;28;20133;-64
2024/03/25 07:04:49;;;;;;;6.85;1.35;;;17.80;99.90;;;;;;5058625;28;20063;-64
2024/03/25 07:07:15;;;;;;;8.73;1.45;;;17.20;99.90;;;;;;5057020;28;20032;-64
2024/03/25 07:09:41;;;;;;;7.90;1.77;;;16.10;99.90;;;;;;5076868;28;20405;-64
2024/03/25 07:12:07;;;;;;;8.73;2.63;;;15.40;99.90;;;;;;5074054;28;20071;-64
2024/03/25 07:14:33;;;;;;;6.40;1.50;;;14.90;99.90;;;;;;5089236;28;20044;-64
2024/03/25 07:16:58;;;;;;;6.45;0.95;;;14.80;99.90;;;;;;5060660;28;20044;-64
2024/03/25 07:19:24;;;;;;;12.10;2.38;;;14.70;99.90;;;;;;5091662;28;20070;-64
2024/03/25 07:21:50;;;;;;;6.07;1.25;;;14.50;99.90;;;;;;5057738;28;20410;-64
2024/03/25 07:24:16;;;;;;;7.35;1.40;;;14.20;99.90;;;;;;5081281;28;20041;-64
2024/03/25 07:26:41;;;;;;;10.38;1.77;;;14.00;99.90;;;;;;5062504;28;20036;-64
2024/03/25 07:29:07;;;;;;;7.70;2.13;;;13.90;99.90;;;;;;5081313;28;20051;-64
2024/03/25 07:31:33;;;;;;;5.78;1.35;;;13.40;99.90;;;;;;5081738;28;20531;-64
2024/03/25 07:33:58;;;;;;;5.85;1.60;;;13.00;99.90;;;;;;5062503;28;20363;-64
2024/03/25 07:36:24;;;;;;;6.90;1.33;;;12.70;99.90;;;;;;5095517;28;20417;-64
2024/03/25 07:38:50;;;;;;;8.45;1.58;;;12.30;99.90;;;;;;5058618;28;20043;-64
2024/03/25 07:41:15;;;;;;;7.10;1.77;;;11.90;99.90;;;;;;5081438;28;20068;-64
2024/03/25 07:43:41;;;;;;;8.55;2.40;;;11.50;99.90;;;;;;5094275;28;20039;-64
2024/03/25 07:46:06;;;;;;;8.07;1.27;;;11.50;99.90;;;;;;5072393;28;20085;-64
2024/03/25 07:48:32;;;;;;;12.88;2.00;;;11.20;99.90;;;;;;5092622;28;20032;-64
2024/03/25 07:50:58;;;;;;;4.57;1.30;;;11.10;99.90;;;;;;5081482;28;20048;-64
2024/03/25 07:53:23;;;;;;;11.23;2.53;;;11.20;99.90;;;;;;5079732;28;20036;-64
2024/03/25 07:55:51;;;;;;;8.73;1.75;;;11.00;99.90;;;;;;5083447;28;20040;-64
2024/03/25 07:58:16;;;;;;;8.32;2.53;;;11.00;99.90;;;;;;5072969;28;20482;-64
2024/03/25 08:00:42;;;;;;;7.97;1.33;;;11.00;99.90;;;;;;5061296;28;20037;-64
2024/03/25 08:03:08;;;;;;;6.78;1.15;;;11.00;99.90;;;;;;5057669;28;20043;-64
2024/03/25 08:05:33;;;;;;;8.27;1.38;;;11.30;99.90;;;;;;5078056;28;20046;-64
2024/03/25 08:07:59;;;;;;;14.05;3.33;;;11.00;99.90;;;;;;5075356;28;20029;-64
2024/03/25 08:10:24;;;;;;;9.90;1.50;;;11.00;99.90;;;;;;5058256;28;20047;-64
2024/03/25 08:12:50;;;;;;;4.53;0.80;;;10.80;99.90;;;;;;5081051;28;20106;-64
2024/03/25 08:15:16;;;;;;;10.07;1.50;;;10.90;99.90;;;;;;5062241;28;20033;-64
2024/03/25 08:17:41;;;;;;;7.13;1.23;;;11.00;99.90;;;;;;5057956;28;20498;-64
2024/03/25 08:20:08;;;;;;;13.13;2.08;;;11.20;99.90;;;;;;5092438;28;20040;-64
2024/03/25 08:22:34;;;;;;;5.93;1.10;;;11.30;99.90;;;;;;5060658;28;20072;-64
2024/03/25 08:24:59;;;;;;;7.05;1.08;;;11.30;99.90;;;;;;5081087;28;20431;-64
2024/03/25 08:27:25;;;;;;;9.30;1.98;;;11.30;99.90;;;;;;5079891;28;20407;-64
2024/03/25 08:29:53;;;;;;;11.23;2.15;;;11.40;99.90;;;;;;5077104;28;20040;-64
2024/03/25 08:32:19;;;;;;;8.68;1.52;;;11.60;99.90;;;;;;5081242;28;20028;-64
2024/03/25 08:34:45;;;;;;;8.10;1.35;;;11.90;99.90;;;;;;5093979;28;20453;-64
2024/03/25 08:37:10;;;;;;;11.63;2.00;;;12.50;99.90;;;;;;5060462;28;20051;-64
2024/03/25 08:39:36;;;;;;;9.00;1.50;;;12.00;99.90;;;;;;5076893;28;20036;-64
2024/03/25 08:42:02;;;;;;;8.68;2.38;;;11.90;99.90;;;;;;5079801;28;20028;-64
2024/03/25 08:44:27;;;;;;;8.45;1.50;;;11.70;99.90;;;;;;5059790;28;20044;-64
2024/03/25 08:46:54;;;;;;;9.98;1.85;;;11.50;99.90;;;;;;5057964;28;20076;-64
2024/03/25 08:49:20;;;;;;;8.23;1.40;;;11.20;99.90;;;;;;5060101;28;20083;-64
2024/03/25 08:51:46;;;;;;;10.40;1.65;;;11.00;99.90;;;;;;5076958;28;20076;-64
2024/03/25 08:54:11;;;;;;;11.18;2.28;;;10.80;99.90;;;;;;5057842;28;20154;-64
2024/03/25 08:56:37;;;;;;;8.85;1.58;;;10.60;99.90;;;;;;5062315;28;20437;-64
2024/03/25 08:59:03;;;;;;;10.07;1.27;;;10.50;99.90;;;;;;5077615;28;20399;-64
2024/03/25 09:01:30;;;;;;;7.72;1.55;;;10.70;99.90;;;;;;5059566;28;20033;-64
2024/03/25 09:03:56;;;;;;;9.80;1.48;;;11.00;99.90;;;;;;5056968;28;20119;-64
2024/03/25 09:06:22;;;;;;;10.18;1.95;;;11.30;99.90;;;;;;5073088;28;20124;-64
2024/03/25 09:11:32;;;;;;;8.20;1.55;;;12.00;99.90;;;;;;5057968;28;20048;-64
2024/03/25 09:13:58;;;;;;;8.75;1.67;;;12.30;99.90;;;;;;5080264;28;20440;-64
2024/03/25 09:16:23;;;;;;;5.70;1.30;;;12.90;99.90;;;;;;5062032;28;20045;-64
2024/03/25 09:18:49;;;;;;;7.53;1.23;;;12.60;99.90;;;;;;5057108;28;20071;-64
2024/03/25 09:21:14;;;;;;;7.80;1.30;;;12.90;99.90;;;;;;5058801;28;20119;-64
2024/03/25 09:23:41;;;;;;;8.52;2.00;;;12.40;99.90;;;;;;5053076;28;20051;-64
2024/03/25 09:26:07;;;;;;;9.30;1.52;;;12.10;99.90;;;;;;5060075;28;20044;-64
2024/03/25 09:28:32;;;;;;;14.50;2.75;;;11.90;99.90;;;;;;5059959;28;20626;-64
2024/03/25 09:30:58;;;;;;;6.25;1.73;;;11.90;99.90;;;;;;5090060;28;20044;-64
2024/03/25 09:33:24;;;;;;;7.75;0.95;;;11.80;99.90;;;;;;5081117;28;20028;-64
2024/03/25 09:35:51;;;;;;;10.05;1.88;;;12.20;99.90;;;;;;5096729;28;20044;-64
2024/03/25 09:38:16;;;;;;;9.65;2.35;;;12.10;99.90;;;;;;5061727;28;20097;-64
2024/03/25 09:40:42;;;;;;;8.80;1.67;;;12.30;99.90;;;;;;5073824;28;20522;-64
2024/03/25 09:43:23;;;;;;;10.73;1.90;;;12.20;99.90;;;;;;5079458;28;20036;-64
2024/03/25 09:45:49;;;;;;;7.70;1.50;;;12.20;99.90;;;;;;5075375;28;20475;-64
2024/03/25 09:48:21;;;;;;;9.40;1.50;;;12.20;99.90;;;;;;5053529;28;20045;-64
2024/03/25 09:50:49;;;;;;;9.70;2.03;;;12.10;99.90;;;;;;5056895;28;20097;-64
2024/03/25 09:53:14;;;;;;;9.35;1.90;;;12.00;99.90;;;;;;5053825;28;20131;-64
2024/03/25 09:55:40;;;;;;;12.90;2.28;;;11.80;99.90;;;;;;5072417;28;20139;-64
2024/03/25 09:58:06;;;;;;;11.13;2.17;;;11.60;99.90;;;;;;5059725;28;20044;-64
2024/03/25 10:00:32;;;;;;;10.85;1.92;;;11.50;99.90;;;;;;5070205;28;20033;-64
2024/03/25 10:02:57;;;;;;;11.98;1.92;;;11.50;99.90;;;;;;5054632;28;20097;-64
2024/03/25 10:05:23;;;;;;;9.90;1.65;;;11.50;99.90;;;;;;5056815;28;20044;-64
2024/03/25 10:07:49;;;;;;;10.45;1.45;;;11.40;99.90;;;;;;5093820;28;20127;-64
2024/03/25 10:10:19;;;;;;;9.20;1.50;;;11.30;99.90;;;;;;5080407;28;20521;-64
2024/03/25 10:12:45;;;;;;;11.48;1.92;;;11.20;99.90;;;;;;5062170;28;20052;-64
2024/03/25 10:15:16;;;;;;;9.45;1.73;;;11.10;99.90;;;;;;5076410;28;20051;-64
2024/03/25 10:17:42;;;;;;;13.70;1.83;;;11.00;99.90;;;;;;5072183;28;20068;-64
2024/03/25 10:20:13;;;;;;;5.60;1.35;;;10.90;99.90;;;;;;5077410;28;20036;-64
2024/03/25 10:22:46;;;;;;;3.42;0.60;;;10.70;99.90;;;;;;5083564;28;20386;-64
2024/03/25 10:25:26;;;;;;;4.90;0.70;;;10.50;99.90;;;;;;5081859;28;20070;-64
2024/03/25 10:27:59;;;;;;;6.57;0.82;;;10.40;99.90;;;;;;5076834;28;20051;-64
2024/03/25 10:30:26;;;;;;;8.15;1.40;;;10.40;99.90;;;;;;5075953;28;20173;-64
2024/03/25 10:33:05;;;;;;;7.80;1.50;;;10.30;99.90;;;;;;5081547;28;20047;-64
2024/03/25 10:35:33;;;;;;;11.73;1.92;;;10.50;99.90;;;;;;5076452;28;20448;-64
2024/03/25 10:38:00;;;;;;;11.32;1.50;;;10.70;99.90;;;;;;5061293;28;20044;-64
2024/03/25 10:40:31;;;;;;;6.22;1.33;;;10.90;99.90;;;;;;5067190;28;20035;-64
2024/03/25 10:43:08;;;;;;;7.97;1.48;;;11.10;99.90;;;;;;5067315;28;20088;-64
2024/03/25 10:45:55;;;;;;;8.13;1.33;;;11.30;99.90;;;;;;5077417;28;20082;-64
2024/03/25 10:48:34;;;;;;;7.65;1.00;;;11.50;99.90;;;;;;5078572;28;20226;-64
2024/03/25 10:51:03;;;;;;;8.88;1.95;;;11.70;99.90;;;;;;5084381;28;20031;-64
2024/03/25 10:53:30;;;;;;;6.35;1.45;;;11.80;99.90;;;;;;5064118;28;20040;-64
2024/03/25 10:55:56;;;;;;;10.85;1.55;;;12.00;99.90;;;;;;5057073;28;20052;-64
2024/03/25 10:58:23;;;;;;;7.55;1.65;;;12.50;99.90;;;;;;5063729;28;20402;-64
2024/03/25 11:00:50;;;;;;;5.72;1.35;;;12.30;99.90;;;;;;5058704;28;20054;-64
2024/03/25 11:03:16;;;;;;;7.47;1.17;;;12.40;99.90;;;;;;5080117;28;20101;-64
2024/03/25 11:05:42;;;;;;;8.18;1.67;;;12.60;99.90;;;;;;5094912;28;20041;-64
2024/03/25 11:08:11;;;;;;;8.48;1.80;;;12.70;99.90;;;;;;5078798;28;20036;-64
2024/03/25 11:10:45;;;;;;;8.32;1.55;;;12.70;99.90;;;;;;5084268;28;20100;-64
2024/03/25 11:13:14;;;;;;;10.38;1.88;;;12.80;99.90;;;;;;5080572;28;20040;-64
2024/03/25 11:15:45;;;;;;;12.43;2.47;;;12.80;99.90;;;;;;5060603;28;20043;-64
2024/03/25 11:18:14;;;;;;;8.73;1.80;;;13.00;99.90;;;;;;5062309;28;20066;-64
2024/03/25 11:21:03;;;;;;;7.90;1.48;;;13.00;99.90;;;;;;5060810;28;20048;-64
2024/03/25 11:23:37;;;;;;;7.82;1.60;;;13.30;99.90;;;;;;5058653;28;20051;-64
2024/03/25 11:26:03;;;;;;;9.75;1.77;;;13.40;99.90;;;;;;5077489;28;20410;-64
2024/03/25 11:28:29;;;;;;;8.68;2.47;;;13.20;99.90;;;;;;5082738;28;20040;-64
2024/03/25 11:30:55;;;;;;;6.70;1.35;;;13.20;99.90;;;;;;5060748;28;20036;-64
2024/03/25 11:33:22;;;;;;;9.43;1.52;;;13.00;99.90;;;;;;5077706;28;20051;-64
2024/03/25 11:35:49;;;;;;;6.22;1.55;;;13.40;99.90;;;;;;5081417;28;20036;-64
2024/03/25 11:38:15;;;;;;;8.00;1.13;;;13.10;99.90;;;;;;5063107;28;20040;-64
2024/03/25 11:40:45;;;;;;;4.55;1.10;;;13.20;99.90;;;;;;5078116;28;20539;-64
2024/03/25 11:43:19;;;;;;;5.65;0.90;;;13.40;99.90;;;;;;5082484;28;20064;-64
2024/03/25 11:45:47;;;;;;;8.70;1.80;;;13.60;99.90;;;;;;5083537;28;20043;-64
2024/03/25 11:48:14;;;;;;;6.40;0.98;;;13.70;99.90;;;;;;5043286;28;20040;-64
2024/03/25 11:50:40;;;;;;;6.40;1.27;;;13.90;99.90;;;;;;5059763;28;20040;-64
2024/03/25 11:53:07;;;;;;;7.82;1.75;;;13.70;99.90;;;;;;5089880;28;20047;-64
2024/03/25 11:55:32;;;;;;;8.10;1.77;;;13.70;99.90;;;;;;5056936;28;20040;-64
2024/03/25 11:57:58;;;;;;;6.10;1.73;;;13.70;99.90;;;;;;5063658;28;20051;-64
2024/03/25 12:00:24;;;;;;;8.52;1.25;;;13.80;99.90;;;;;;5082171;28;20364;-64
2024/03/25 12:02:51;;;;;;;5.15;1.20;;;13.70;99.90;;;;;;5092707;28;20113;-64
2024/03/25 12:05:17;;;;;;;3.90;0.85;;;13.70;99.90;;;;;;5097315;28;20040;-64
2024/03/25 12:07:43;;;;;;;4.72;1.05;;;13.80;99.90;;;;;;5061631;28;20090;-64
2024/03/25 12:12:53;;;;;;;6.78;1.33;;;14.10;99.90;;;;;;5079267;28;20071;-64
2024/03/25 12:15:18;;;;;;;4.15;1.10;;;14.40;99.90;;;;;;5063618;28;20659;-64
2024/03/25 12:17:45;;;;;;;8.68;0.90;;;14.20;99.90;;;;;;5095438;28;20040;-64
2024/03/25 12:20:10;;;;;;;7.15;1.17;;;14.20;99.50;;;;;;5078977;28;20675;-64
2024/03/25 12:22:36;;;;;;;7.07;1.05;;;14.00;98.40;;;;;;5056829;28;20036;-64
2024/03/25 12:25:07;;;;;;;10.43;1.50;;;14.10;99.50;;;;;;5076793;28;20054;-64
2024/03/25 12:27:33;;;;;;;6.65;1.50;;;13.90;99.90;;;;;;5075999;28;20039;-64
2024/03/25 12:30:06;;;;;;;6.25;1.15;;;13.90;99.70;;;;;;5078942;28;20037;-64
2024/03/25 12:32:40;;;;;;;7.35;1.88;;;13.90;99.60;;;;;;5080393;28;20364;-64
2024/03/25 12:35:13;;;;;;;6.78;1.20;;;14.00;99.80;;;;;;5064750;28;20059;-64
2024/03/25 12:37:44;;;;;;;5.07;1.02;;;14.10;99.30;;;;;;5080920;28;20033;-64
2024/03/25 12:40:11;;;;;;;10.57;1.17;;;14.00;99.30;;;;;;5098901;28;20048;-64
2024/03/25 12:42:38;;;;;;;11.00;1.67;;;14.00;99.50;;;;;;5083218;28;20036;-64
2024/03/25 12:45:05;;;;;;;6.95;1.60;;;14.00;99.90;;;;;;5092652;28;20040;-64
2024/03/25 12:47:31;;;;;;;5.65;1.25;;;13.90;99.40;;;;;;5079876;28;20051;-64
2024/03/25 12:49:57;;;;;;;6.40;1.20;;;13.70;97.40;;;;;;5058895;28;20048;-64
2024/03/25 12:52:22;;;;;;;5.28;0.98;;;13.50;98.60;;;;;;5074352;28;20386;-64
2024/03/25 12:54:48;;;;;;;5.00;1.15;;;13.40;99.10;;;;;;5075950;28;20040;-64